Time;durP1;ratioP1;P1;durP2;ratioP2;P2;SDS_P1;SDS_P2;PMS_P1;PMS_P2;Temp;Humidity;BMP_temperature;BMP_pressure;BME280_temperature;BME280_humidity;BME280_pressure;Samples;Min_cycle;Max_cycle;Signal;HPM_P1;HPM_P2
2022/03/03 00:01:19;;;;;;;22.33;14.48;;;3.00;99.90;;;;;;5020764;28;20199;-88
2022/03/03 00:03:46;;;;;;;21.13;13.43;;;2.80;99.90;;;;;;5024730;28;20288;-89
2022/03/03 00:06:15;;;;;;;21.92;13.43;;;2.90;99.90;;;;;;5020287;28;20238;-90
2022/03/03 00:08:42;;;;;;;19.73;12.52;;;2.90;99.90;;;;;;5020126;28;20234;-89
2022/03/03 00:11:11;;;;;;;25.25;14.27;;;2.70;99.90;;;;;;5020348;28;20210;-88
2022/03/03 00:13:38;;;;;;;17.05;12.30;;;2.90;99.90;;;;;;5020262;28;20665;-88
2022/03/03 00:16:08;;;;;;;20.40;13.05;;;2.80;99.90;;;;;;5022841;28;20208;-90
2022/03/03 00:18:35;;;;;;;17.77;12.20;;;2.60;99.90;;;;;;5028094;28;20279;-88
2022/03/03 00:21:03;;;;;;;19.95;13.00;;;2.60;99.90;;;;;;5022248;28;20232;-88
2022/03/03 00:23:30;;;;;;;20.75;12.82;;;2.80;99.90;;;;;;5021141;28;20208;-88
2022/03/03 00:25:57;;;;;;;19.30;12.80;;;2.80;99.90;;;;;;5018967;28;20226;-88
2022/03/03 00:28:26;;;;;;;22.05;14.27;;;2.60;99.90;;;;;;5030088;28;20204;-88
2022/03/03 00:30:53;;;;;;;23.20;14.52;;;2.80;99.90;;;;;;5024630;28;20209;-88
2022/03/03 00:33:22;;;;;;;25.00;15.77;;;2.50;99.90;;;;;;5018494;28;20247;-88
2022/03/03 00:35:49;;;;;;;21.25;13.07;;;2.70;99.90;;;;;;5025644;28;20700;-88
2022/03/03 00:38:16;;;;;;;20.17;14.40;;;2.50;99.90;;;;;;5020894;28;20335;-89
2022/03/03 00:40:43;;;;;;;21.27;15.10;;;2.60;99.90;;;;;;5027717;28;20270;-88
2022/03/03 00:43:10;;;;;;;21.55;15.27;;;2.40;99.90;;;;;;5034441;28;20400;-88
2022/03/03 00:45:39;;;;;;;24.30;15.13;;;2.50;99.90;;;;;;5032657;28;20196;-89
2022/03/03 00:48:06;;;;;;;24.88;14.77;;;2.50;99.90;;;;;;5026365;28;20207;-88
2022/03/03 00:50:33;;;;;;;19.38;13.65;;;2.50;99.90;;;;;;5023016;28;20239;-88
2022/03/03 00:53:00;;;;;;;23.42;14.23;;;2.50;99.90;;;;;;5019763;28;20196;-89
2022/03/03 00:55:28;;;;;;;21.10;13.73;;;2.60;99.90;;;;;;5032005;28;20235;-88
2022/03/03 00:57:55;;;;;;;22.27;14.02;;;2.80;99.90;;;;;;5034973;28;20264;-88
2022/03/03 01:00:22;;;;;;;21.73;14.43;;;2.80;99.90;;;;;;5025959;28;20232;-88
2022/03/03 01:02:53;;;;;;;22.00;13.93;;;2.60;99.90;;;;;;5021631;28;20246;-88
2022/03/03 01:05:20;;;;;;;18.52;12.50;;;2.60;99.90;;;;;;5035950;28;20212;-89
2022/03/03 01:07:47;;;;;;;22.33;14.70;;;2.60;99.90;;;;;;5037975;28;20232;-88
2022/03/03 01:10:14;;;;;;;21.60;14.38;;;2.50;99.90;;;;;;5036918;28;20212;-88
2022/03/03 01:12:41;;;;;;;19.80;14.40;;;2.60;99.90;;;;;;5031888;28;20192;-88
2022/03/03 01:15:13;;;;;;;24.25;14.82;;;2.60;99.90;;;;;;5034782;28;20199;-88
2022/03/03 01:17:40;;;;;;;25.80;14.63;;;2.60;99.90;;;;;;5033538;28;20200;-88
2022/03/03 01:20:10;;;;;;;22.00;14.75;;;2.60;99.90;;;;;;5020847;28;20227;-88
2022/03/03 01:22:37;;;;;;;22.45;14.63;;;2.60;99.90;;;;;;5019687;28;20222;-88
2022/03/03 01:25:05;;;;;;;21.00;14.43;;;2.50;99.90;;;;;;5018276;28;20200;-89
2022/03/03 01:27:32;;;;;;;20.42;14.15;;;2.60;99.90;;;;;;5031457;28;20420;-88
2022/03/03 01:30:01;;;;;;;24.00;15.07;;;2.70;99.90;;;;;;5024594;28;20224;-88
2022/03/03 01:32:28;;;;;;;19.73;14.60;;;2.50;99.90;;;;;;5033415;28;20188;-88
2022/03/03 01:34:55;;;;;;;21.20;14.85;;;2.70;99.90;;;;;;5034370;28;20216;-88
2022/03/03 01:37:23;;;;;;;23.05;14.10;;;2.60;99.90;;;;;;5021929;28;20298;-88
2022/03/03 01:39:50;;;;;;;22.83;14.10;;;2.60;99.90;;;;;;5022073;28;20228;-88
2022/03/03 01:42:20;;;;;;;20.02;12.90;;;2.40;99.90;;;;;;5021340;28;20241;-88
2022/03/03 01:44:47;;;;;;;22.13;13.90;;;2.60;99.90;;;;;;5021393;28;20633;-88
2022/03/03 01:47:19;;;;;;;23.20;13.55;;;2.70;99.90;;;;;;5022936;28;20251;-89
2022/03/03 01:49:46;;;;;;;21.67;12.98;;;2.60;99.90;;;;;;5021744;28;20587;-89
2022/03/03 01:52:13;;;;;;;22.17;12.88;;;2.50;99.90;;;;;;5020208;28;20208;-88
2022/03/03 01:54:42;;;;;;;23.58;15.02;;;2.60;99.90;;;;;;5021454;28;20246;-88
2022/03/03 01:57:10;;;;;;;20.13;13.02;;;2.50;99.90;;;;;;5021032;28;20653;-88
2022/03/03 01:59:39;;;;;;;24.52;14.15;;;2.30;99.90;;;;;;5018594;28;20249;-88
2022/03/03 02:02:08;;;;;;;23.58;13.93;;;2.40;99.90;;;;;;5023404;28;20201;-88
2022/03/03 02:04:35;;;;;;;23.65;14.70;;;2.40;99.90;;;;;;5031226;28;20221;-88
2022/03/03 02:07:04;;;;;;;25.38;14.30;;;2.30;99.90;;;;;;5024110;28;20233;-88
2022/03/03 02:09:31;;;;;;;21.75;14.80;;;2.00;99.90;;;;;;5020238;28;20294;-89
2022/03/03 02:11:59;;;;;;;19.88;14.45;;;2.30;99.90;;;;;;5022927;28;20275;-88
2022/03/03 02:14:26;;;;;;;20.52;14.23;;;2.20;99.90;;;;;;5020720;28;20292;-88
2022/03/03 02:16:53;;;;;;;24.48;14.50;;;2.50;99.90;;;;;;5021021;28;20692;-88
2022/03/03 02:19:22;;;;;;;23.75;14.18;;;2.40;99.90;;;;;;5018264;28;20236;-88
2022/03/03 02:21:52;;;;;;;20.42;14.98;;;2.80;99.90;;;;;;5018079;28;20743;-88
2022/03/03 02:24:20;;;;;;;21.23;13.90;;;2.50;99.90;;;;;;5017456;28;20239;-88
2022/03/03 02:26:49;;;;;;;23.60;15.10;;;2.40;99.90;;;;;;5018196;28;20696;-88
2022/03/03 02:29:16;;;;;;;25.80;15.88;;;2.40;99.90;;;;;;5020346;28;20271;-88
2022/03/03 02:31:45;;;;;;;23.83;15.45;;;2.30;99.90;;;;;;5023565;28;20213;-88
2022/03/03 02:34:12;;;;;;;21.95;14.82;;;2.40;99.90;;;;;;5019676;28;20204;-88
2022/03/03 02:36:39;;;;;;;20.80;13.85;;;2.30;99.90;;;;;;5019159;28;20246;-88
2022/03/03 02:39:08;;;;;;;23.23;14.55;;;2.20;99.90;;;;;;5018886;28;20234;-88
2022/03/03 02:41:35;;;;;;;22.52;13.68;;;2.10;99.90;;;;;;5036619;28;20192;-88
2022/03/03 02:44:02;;;;;;;22.85;14.02;;;2.30;99.90;;;;;;5026519;28;20199;-88
2022/03/03 02:46:30;;;;;;;20.80;13.95;;;2.30;99.90;;;;;;5026754;28;20311;-88
2022/03/03 02:48:57;;;;;;;28.08;14.68;;;2.20;99.90;;;;;;5026088;28;20231;-88
2022/03/03 02:51:24;;;;;;;25.20;15.73;;;2.10;99.90;;;;;;5024216;28;20604;-88
2022/03/03 02:53:51;;;;;;;23.58;14.15;;;2.20;99.90;;;;;;5023150;28;20293;-89
2022/03/03 02:56:20;;;;;;;26.77;16.25;;;2.10;99.90;;;;;;5028304;28;20219;-88
2022/03/03 02:58:47;;;;;;;25.30;13.70;;;1.90;99.90;;;;;;5020118;28;20238;-88
2022/03/03 03:01:14;;;;;;;23.10;14.48;;;2.10;99.90;;;;;;5025137;28;20255;-88
2022/03/03 03:03:41;;;;;;;22.95;14.82;;;2.10;99.90;;;;;;5025800;28;20269;-88
2022/03/03 03:06:08;;;;;;;22.60;14.77;;;1.80;99.90;;;;;;5024583;28;20213;-89
2022/03/03 03:08:35;;;;;;;20.95;13.93;;;2.00;99.90;;;;;;5033589;28;20650;-89
2022/03/03 03:11:02;;;;;;;25.83;15.82;;;2.20;99.90;;;;;;5031857;28;20267;-88
2022/03/03 03:13:30;;;;;;;19.73;14.10;;;2.10;99.90;;;;;;5028891;28;20235;-89
2022/03/03 03:15:57;;;;;;;20.00;14.35;;;2.00;99.90;;;;;;5026302;28;20257;-88
2022/03/03 03:18:24;;;;;;;26.38;16.25;;;2.00;99.90;;;;;;5021125;28;20234;-88
2022/03/03 03:20:53;;;;;;;21.58;13.98;;;2.00;99.90;;;;;;5042009;23;20211;-90
2022/03/03 03:23:22;;;;;;;22.10;14.85;;;1.90;99.90;;;;;;5045220;28;20245;-91
2022/03/03 03:25:49;;;;;;;23.88;14.55;;;1.90;99.90;;;;;;5038372;28;20220;-91
2022/03/03 03:28:18;;;;;;;22.75;16.13;;;2.00;99.90;;;;;;5038135;28;20742;-89
2022/03/03 03:30:48;;;;;;;27.55;14.73;;;1.90;99.90;;;;;;5038920;28;20210;-90
2022/03/03 03:33:15;;;;;;;21.92;14.35;;;1.90;99.90;;;;;;5019269;28;20296;-90
2022/03/03 03:35:42;;;;;;;19.70;14.05;;;1.90;99.90;;;;;;5018970;28;20646;-90
2022/03/03 03:38:09;;;;;;;21.85;14.43;;;2.00;99.90;;;;;;5035403;28;20204;-88
2022/03/03 03:40:36;;;;;;;24.67;14.73;;;1.90;99.90;;;;;;5035560;28;20205;-89
2022/03/03 03:43:03;;;;;;;24.98;15.20;;;1.80;99.90;;;;;;5038509;28;20222;-89
2022/03/03 03:45:31;;;;;;;22.88;14.63;;;1.60;99.90;;;;;;5023919;28;20216;-89
2022/03/03 03:48:00;;;;;;;19.30;14.52;;;1.70;99.90;;;;;;5016985;28;20423;-89
2022/03/03 03:50:28;;;;;;;26.95;15.38;;;1.70;99.90;;;;;;5017013;28;20325;-88
2022/03/03 03:52:55;;;;;;;23.50;14.13;;;1.80;99.90;;;;;;5017472;28;20604;-89
2022/03/03 03:55:23;;;;;;;23.42;14.90;;;1.80;99.90;;;;;;5031925;28;20191;-89
2022/03/03 03:57:50;;;;;;;27.25;15.02;;;1.70;99.90;;;;;;5037865;28;20206;-89
2022/03/03 04:00:17;;;;;;;23.70;14.98;;;1.80;99.90;;;;;;5017327;28;20282;-89
2022/03/03 04:02:47;;;;;;;20.80;14.18;;;1.60;99.90;;;;;;5025206;28;20251;-89
2022/03/03 04:05:16;;;;;;;33.28;15.93;;;1.60;99.90;;;;;;5033158;28;20274;-89
2022/03/03 04:07:43;;;;;;;22.55;15.25;;;1.70;99.90;;;;;;5038398;28;20292;-89
2022/03/03 04:10:11;;;;;;;21.27;15.40;;;1.50;99.90;;;;;;5038098;28;20192;-88
2022/03/03 04:12:39;;;;;;;28.30;16.80;;;1.50;99.90;;;;;;5037694;28;20228;-90
2022/03/03 04:15:07;;;;;;;26.42;15.73;;;1.80;99.90;;;;;;5028204;28;20191;-89
2022/03/03 04:17:34;;;;;;;25.75;15.40;;;1.50;99.90;;;;;;5017936;28;20694;-90
2022/03/03 04:20:01;;;;;;;24.30;15.50;;;1.60;99.90;;;;;;5017537;28;20234;-89
2022/03/03 04:22:29;;;;;;;25.08;16.65;;;1.40;99.90;;;;;;5017313;28;20323;-90
2022/03/03 04:24:56;;;;;;;23.25;14.90;;;1.70;99.90;;;;;;5017987;28;20218;-90
2022/03/03 04:27:23;;;;;;;23.50;16.17;;;1.60;99.90;;;;;;5018234;28;20680;-89
2022/03/03 04:29:50;;;;;;;27.08;16.15;;;1.50;99.90;;;;;;5017813;28;20707;-90
2022/03/03 04:32:18;;;;;;;28.88;16.15;;;1.20;99.90;;;;;;5016600;28;20315;-90
2022/03/03 04:34:45;;;;;;;23.23;15.80;;;1.20;99.90;;;;;;5024690;28;20199;-90
2022/03/03 04:37:12;;;;;;;24.52;16.27;;;1.20;99.90;;;;;;5017047;28;20238;-89
2022/03/03 04:39:40;;;;;;;26.23;15.40;;;1.20;99.90;;;;;;5016314;28;20246;-91
2022/03/03 04:42:08;;;;;;;24.23;15.63;;;1.20;99.90;;;;;;5018567;28;20215;-90
2022/03/03 04:44:35;;;;;;;26.08;15.75;;;1.20;99.90;;;;;;5019619;28;20559;-90
2022/03/03 04:47:02;;;;;;;22.90;15.73;;;1.40;99.90;;;;;;5018776;28;20603;-90
2022/03/03 04:49:29;;;;;;;23.70;15.70;;;1.60;99.90;;;;;;5032071;28;20200;-91
2022/03/03 04:51:59;;;;;;;28.15;15.65;;;1.60;99.90;;;;;;5031139;28;20289;-90
2022/03/03 04:54:25;;;;;;;26.75;17.23;;;1.50;99.90;;;;;;5031344;28;20302;-90
2022/03/03 04:56:55;;;;;;;25.98;16.13;;;1.60;99.90;;;;;;5025229;28;20212;-90
2022/03/03 04:59:25;;;;;;;23.38;16.35;;;1.30;99.90;;;;;;5021070;28;20274;-90
2022/03/03 05:01:52;;;;;;;22.73;15.85;;;1.30;99.90;;;;;;5017761;28;20250;-90
2022/03/03 05:04:19;;;;;;;24.33;16.88;;;1.40;99.90;;;;;;5020477;28;20233;-90
2022/03/03 05:06:47;;;;;;;24.95;17.00;;;1.20;99.90;;;;;;5028527;28;20245;-90
2022/03/03 05:09:15;;;;;;;22.92;16.00;;;1.30;99.90;;;;;;5031404;28;20242;-91
2022/03/03 05:11:42;;;;;;;24.10;16.73;;;1.50;99.90;;;;;;5033173;28;20283;-90
2022/03/03 05:14:10;;;;;;;25.55;17.48;;;1.50;99.90;;;;;;5027630;28;20532;-89
2022/03/03 05:16:37;;;;;;;25.02;16.90;;;1.40;99.90;;;;;;5022471;28;20211;-89
2022/03/03 05:19:04;;;;;;;25.83;17.65;;;1.50;99.90;;;;;;5051051;23;20239;-90
2022/03/03 05:21:32;;;;;;;26.10;17.25;;;1.70;99.90;;;;;;5022210;28;20662;-89
2022/03/03 05:24:00;;;;;;;24.42;16.25;;;1.50;99.90;;;;;;5022382;28;20230;-91
2022/03/03 05:26:33;;;;;;;26.80;16.23;;;1.60;99.90;;;;;;5022120;28;20267;-91
2022/03/03 05:29:01;;;;;;;24.92;16.40;;;1.40;99.90;;;;;;5023354;28;20237;-90
2022/03/03 05:31:30;;;;;;;25.00;15.73;;;1.70;99.90;;;;;;5026051;28;20231;-90
2022/03/03 05:33:57;;;;;;;24.70;16.98;;;1.60;99.90;;;;;;5036176;28;20640;-90
2022/03/03 05:36:26;;;;;;;29.25;17.75;;;1.80;99.90;;;;;;5028184;28;20239;-91
2022/03/03 05:38:59;;;;;;;24.88;16.50;;;1.70;99.90;;;;;;5026509;28;20731;-88
2022/03/03 05:41:29;;;;;;;28.85;17.38;;;1.80;99.90;;;;;;5022157;28;20227;-89
2022/03/03 05:44:00;;;;;;;25.48;17.30;;;1.80;99.90;;;;;;5030790;28;20628;-91
2022/03/03 05:46:28;;;;;;;23.95;15.65;;;1.50;99.90;;;;;;5026245;28;20223;-90
2022/03/03 05:48:57;;;;;;;26.88;17.85;;;1.60;99.90;;;;;;5022617;28;20241;-90
2022/03/03 05:51:24;;;;;;;22.35;16.20;;;1.50;99.90;;;;;;5022977;28;20627;-90
2022/03/03 05:53:52;;;;;;;28.55;17.65;;;1.40;99.90;;;;;;5022122;28;20215;-90
2022/03/03 05:56:26;;;;;;;25.85;16.95;;;1.50;99.90;;;;;;5024430;28;20349;-91
2022/03/03 05:58:59;;;;;;;29.38;17.10;;;1.30;99.90;;;;;;5039385;28;20198;-91
2022/03/03 06:01:28;;;;;;;27.67;17.27;;;1.30;99.90;;;;;;5039880;28;20212;-92
2022/03/03 06:04:01;;;;;;;30.70;16.15;;;1.30;99.90;;;;;;5017875;28;20196;-90
2022/03/03 06:06:31;;;;;;;25.33;17.38;;;1.40;99.90;;;;;;5038821;28;20218;-91
2022/03/03 06:09:14;;;;;;;25.65;16.58;;;1.40;99.90;;;;;;5250160;23;20222;-89
2022/03/03 06:11:47;;;;;;;24.45;16.02;;;1.70;99.90;;;;;;5414031;23;20235;-90
2022/03/03 06:14:19;;;;;;;24.33;15.95;;;1.60;99.90;;;;;;5031638;28;20210;-88
2022/03/03 06:16:49;;;;;;;23.55;15.65;;;1.60;99.90;;;;;;5023144;28;20203;-92
2022/03/03 06:19:20;;;;;;;27.77;15.85;;;1.60;99.90;;;;;;5031000;28;20218;-90
2022/03/03 06:21:48;;;;;;;24.00;16.48;;;1.70;99.90;;;;;;5024837;28;20242;-91
2022/03/03 06:24:15;;;;;;;27.00;17.40;;;1.30;99.90;;;;;;5027778;28;20224;-90
2022/03/03 06:26:42;;;;;;;28.35;15.05;;;1.40;99.90;;;;;;5022936;28;20644;-92
2022/03/03 06:29:10;;;;;;;30.60;17.55;;;1.40;99.90;;;;;;5023508;28;20238;-91
2022/03/03 06:31:37;;;;;;;27.58;17.17;;;1.30;99.90;;;;;;5024143;28;20227;-90
2022/03/03 06:34:04;;;;;;;28.45;16.05;;;1.50;99.90;;;;;;5027007;28;20207;-90
2022/03/03 06:36:32;;;;;;;25.52;14.93;;;1.60;99.90;;;;;;5035980;28;20216;-89
2022/03/03 06:39:02;;;;;;;23.55;15.43;;;1.30;99.90;;;;;;5028502;28;20676;-90
2022/03/03 06:41:30;;;;;;;27.73;17.92;;;1.40;99.90;;;;;;5032360;28;20230;-90
2022/03/03 06:43:57;;;;;;;30.20;17.17;;;1.40;99.90;;;;;;5035537;28;20266;-90
2022/03/03 06:46:25;;;;;;;22.05;16.73;;;1.40;99.90;;;;;;5031407;28;20227;-90
2022/03/03 06:48:52;;;;;;;27.40;17.30;;;1.60;99.90;;;;;;5032747;28;20221;-90
2022/03/03 06:51:23;;;;;;;27.67;18.27;;;1.50;99.90;;;;;;5038820;28;20225;-92
2022/03/03 06:53:56;;;;;;;33.05;16.45;;;1.60;99.90;;;;;;5038618;28;20191;-88
2022/03/03 06:56:25;;;;;;;29.90;18.98;;;1.50;99.90;;;;;;5036910;28;20191;-88
2022/03/03 06:58:57;;;;;;;31.05;17.08;;;1.70;99.90;;;;;;5022751;28;20215;-88
2022/03/03 07:01:25;;;;;;;30.73;18.10;;;1.40;99.90;;;;;;5020784;28;20318;-88
2022/03/03 07:03:52;;;;;;;24.92;17.73;;;1.80;99.90;;;;;;5033120;28;20222;-89
2022/03/03 07:06:19;;;;;;;28.83;18.00;;;1.50;99.90;;;;;;5026540;28;20660;-89
2022/03/03 07:08:50;;;;;;;27.02;17.35;;;1.70;99.90;;;;;;5024045;28;20259;-88
2022/03/03 07:11:22;;;;;;;27.40;16.73;;;1.70;99.90;;;;;;5022786;28;20246;-88
2022/03/03 07:13:52;;;;;;;30.52;18.15;;;1.80;99.90;;;;;;5032953;28;20192;-88
2022/03/03 07:16:28;;;;;;;28.23;17.52;;;2.00;99.90;;;;;;5034267;28;20203;-89
2022/03/03 07:18:56;;;;;;;32.50;20.70;;;1.80;99.90;;;;;;5024013;28;20191;-88
2022/03/03 07:21:39;;;;;;;33.20;18.92;;;2.00;99.90;;;;;;5026245;28;20246;-90
2022/03/03 07:24:21;;;;;;;30.52;18.88;;;2.00;99.90;;;;;;5026582;28;20212;-88
2022/03/03 07:26:55;;;;;;;28.90;19.40;;;2.10;99.90;;;;;;5020587;28;20219;-88
2022/03/03 07:29:26;;;;;;;33.10;19.52;;;2.00;99.90;;;;;;5021280;28;20215;-89
2022/03/03 07:31:56;;;;;;;32.70;18.23;;;2.10;99.90;;;;;;5024934;28;20232;-89
2022/03/03 07:34:29;;;;;;;27.77;18.25;;;2.40;99.90;;;;;;5028764;28;20199;-89
2022/03/03 07:37:01;;;;;;;31.80;18.95;;;2.50;99.90;;;;;;5028265;28;20195;-89
2022/03/03 07:39:31;;;;;;;32.00;18.75;;;2.70;99.90;;;;;;5027798;28;20193;-88
2022/03/03 07:42:03;;;;;;;29.98;20.25;;;2.50;99.90;;;;;;5032083;28;20233;-89
2022/03/03 07:44:30;;;;;;;29.30;17.67;;;2.70;99.90;;;;;;5036326;28;20230;-88
2022/03/03 07:47:17;;;;;;;30.20;18.27;;;2.70;99.90;;;;;;5030173;28;20202;-90
2022/03/03 07:49:51;;;;;;;31.05;18.83;;;2.70;99.90;;;;;;5031698;28;20211;-89
2022/03/03 07:52:23;;;;;;;33.08;19.55;;;3.20;99.90;;;;;;5030152;28;20232;-89
2022/03/03 07:54:53;;;;;;;31.95;19.42;;;3.20;99.90;;;;;;5026334;28;20219;-89
2022/03/03 07:57:47;;;;;;;29.73;20.27;;;3.00;99.90;;;;;;5026270;28;20184;-89
2022/03/03 08:00:15;;;;;;;35.58;20.48;;;3.00;99.90;;;;;;5025933;28;20247;-89
2022/03/03 08:09:04;;;;;;;38.55;21.05;;;3.40;99.90;;;;;;5011009;28;20228;-88
2022/03/03 08:11:57;;;;;;;28.83;19.42;;;3.40;99.90;;;;;;5027181;28;20235;-89
2022/03/03 08:14:33;;;;;;;26.70;18.40;;;3.60;99.90;;;;;;5028248;28;20216;-91
2022/03/03 08:17:10;;;;;;;27.55;18.30;;;3.70;99.90;;;;;;5034181;28;20202;-90
2022/03/03 08:19:41;;;;;;;33.15;20.38;;;3.30;99.90;;;;;;5037432;28;20194;-89
2022/03/03 08:22:11;;;;;;;32.20;21.52;;;3.80;99.90;;;;;;5030464;28;20238;-89
2022/03/03 08:24:44;;;;;;;34.05;20.10;;;3.50;99.90;;;;;;5031934;28;20224;-89
2022/03/03 08:27:15;;;;;;;29.20;20.38;;;3.60;99.90;;;;;;5029140;28;20227;-89
2022/03/03 08:29:47;;;;;;;38.28;20.92;;;3.90;99.90;;;;;;5026050;28;20234;-88
2022/03/03 08:32:34;;;;;;;28.05;19.67;;;4.00;99.90;;;;;;5028072;28;20237;-90
2022/03/03 08:35:55;;;;;;;40.33;20.70;;;4.20;99.90;;;;;;5028876;28;20217;-89
2022/03/03 08:38:57;;;;;;;34.63;18.90;;;4.20;99.90;;;;;;5028759;28;20233;-89
2022/03/03 08:41:39;;;;;;;33.70;20.30;;;4.30;99.90;;;;;;5029450;28;20565;-89
2022/03/03 08:44:12;;;;;;;28.92;18.98;;;4.50;99.90;;;;;;5029146;28;20233;-89
2022/03/03 08:46:43;;;;;;;32.85;22.05;;;4.70;99.90;;;;;;5029362;28;20244;-90
2022/03/03 08:49:18;;;;;;;36.38;20.85;;;4.70;99.90;;;;;;5027806;28;20249;-89
2022/03/03 08:51:45;;;;;;;33.08;15.60;;;4.70;99.90;;;;;;5027286;28;20229;-88
2022/03/03 08:57:24;;;;;;;30.13;19.98;;;4.70;99.90;;;;;;5030793;28;20228;-90
2022/03/03 08:59:56;;;;;;;32.75;18.65;;;4.70;99.90;;;;;;5030194;28;20214;-90
2022/03/03 09:02:29;;;;;;;35.13;21.55;;;4.70;99.90;;;;;;5029947;28;20226;-90
2022/03/03 09:04:57;;;;;;;30.15;19.42;;;4.70;99.90;;;;;;5027143;28;20204;-90
2022/03/03 09:07:43;;;;;;;28.23;16.38;;;4.70;99.90;;;;;;5026457;28;20638;-89
2022/03/03 09:10:15;;;;;;;31.67;20.52;;;4.70;99.90;;;;;;5024634;28;20224;-89
2022/03/03 09:12:43;;;;;;;29.58;17.60;;;4.40;99.90;;;;;;5024743;28;20305;-89
2022/03/03 09:18:10;;;;;;;29.98;19.27;;;4.40;99.90;;;;;;5027272;28;20202;-88
2022/03/03 09:20:37;;;;;;;31.25;19.35;;;5.10;99.90;;;;;;5029983;28;20222;-88
2022/03/03 09:23:04;;;;;;;25.63;18.63;;;5.10;99.90;;;;;;5081039;23;20232;-88
2022/03/03 09:25:36;;;;;;;29.30;19.95;;;5.30;99.90;;;;;;5046875;28;20200;-89
2022/03/03 09:28:02;;;;;;;24.92;15.85;;;5.40;99.90;;;;;;5041567;28;20244;-88
2022/03/03 09:30:29;;;;;;;33.47;20.75;;;5.30;99.90;;;;;;5039804;28;20230;-89
2022/03/03 09:32:56;;;;;;;34.45;21.38;;;5.30;99.90;;;;;;5048274;28;20217;-89
2022/03/03 09:35:25;;;;;;;32.10;20.42;;;5.50;99.90;;;;;;5053800;28;20206;-89
2022/03/03 09:37:52;;;;;;;34.92;18.77;;;5.80;99.90;;;;;;5051701;28;20283;-90
2022/03/03 09:40:19;;;;;;;34.55;19.10;;;5.80;99.90;;;;;;5044448;28;20295;-88
2022/03/03 09:42:58;;;;;;;30.90;17.70;;;6.00;99.90;;;;;;5037675;28;20312;-88
2022/03/03 09:45:26;;;;;;;28.85;19.15;;;5.90;99.90;;;;;;5036977;28;20195;-88
2022/03/03 09:47:54;;;;;;;31.02;20.20;;;5.90;99.60;;;;;;5037861;28;20315;-88
2022/03/03 09:50:22;;;;;;;36.10;21.00;;;6.10;99.70;;;;;;5049528;28;20234;-88
2022/03/03 09:52:51;;;;;;;27.48;16.85;;;6.10;99.90;;;;;;5048491;28;20241;-87
2022/03/03 09:55:18;;;;;;;30.33;19.08;;;6.10;99.60;;;;;;5042526;28;20284;-87
2022/03/03 09:57:45;;;;;;;29.30;18.85;;;6.40;99.40;;;;;;5040529;28;20193;-87
2022/03/03 10:00:13;;;;;;;29.38;19.92;;;6.30;98.90;;;;;;5040309;28;20308;-88
2022/03/03 10:03:03;;;;;;;40.20;20.92;;;6.40;98.80;;;;;;5043804;28;20311;-88
2022/03/03 10:05:36;;;;;;;33.65;20.52;;;6.40;98.80;;;;;;5047595;28;20266;-89
2022/03/03 10:08:08;;;;;;;28.95;21.23;;;6.50;98.20;;;;;;5057321;28;20307;-87
2022/03/03 10:10:37;;;;;;;30.95;20.25;;;6.60;97.80;;;;;;5057647;28;20241;-89
2022/03/03 10:13:06;;;;;;;33.90;20.83;;;6.40;97.40;;;;;;5055078;28;20254;-90
2022/03/03 10:15:35;;;;;;;31.27;20.08;;;6.70;97.20;;;;;;5047042;28;20205;-90
2022/03/03 10:18:05;;;;;;;31.38;20.13;;;6.60;97.10;;;;;;5045244;28;20203;-90
2022/03/03 10:20:38;;;;;;;41.95;21.45;;;6.80;97.50;;;;;;5043684;28;20195;-89
2022/03/03 10:23:09;;;;;;;30.73;21.05;;;7.00;96.80;;;;;;5045546;28;20237;-90
2022/03/03 10:25:42;;;;;;;30.50;19.67;;;7.00;96.20;;;;;;5043461;28;20210;-89
2022/03/03 10:28:17;;;;;;;29.83;21.25;;;7.00;96.20;;;;;;5043749;28;20276;-89
2022/03/03 10:30:59;;;;;;;30.30;19.40;;;7.20;95.80;;;;;;5042391;28;20229;-89
2022/03/03 10:33:29;;;;;;;33.47;21.45;;;7.30;95.80;;;;;;5047348;28;20230;-90
2022/03/03 10:36:01;;;;;;;26.00;16.40;;;7.30;95.90;;;;;;5043722;28;20277;-89
2022/03/03 10:38:30;;;;;;;32.13;20.33;;;7.50;94.80;;;;;;5043437;28;20217;-90
2022/03/03 10:40:58;;;;;;;28.05;15.05;;;7.60;94.90;;;;;;5041975;28;20317;-90
2022/03/03 10:43:25;;;;;;;25.35;18.08;;;7.60;93.80;;;;;;5046032;28;20227;-90
2022/03/03 10:45:58;;;;;;;25.55;18.30;;;7.50;94.10;;;;;;5045942;28;20265;-89
2022/03/03 10:48:27;;;;;;;25.45;16.63;;;7.50;94.10;;;;;;5047956;28;20218;-89
2022/03/03 10:50:58;;;;;;;25.17;17.35;;;7.70;93.40;;;;;;5052481;28;20217;-89
2022/03/03 10:53:27;;;;;;;29.60;17.08;;;7.70;93.30;;;;;;5046892;28;20227;-90
2022/03/03 10:56:05;;;;;;;26.90;19.80;;;7.70;92.90;;;;;;5049970;28;20289;-91
2022/03/03 10:58:57;;;;;;;27.23;16.50;;;7.90;93.10;;;;;;5047634;28;20191;-92
2022/03/03 11:01:29;;;;;;;27.17;19.13;;;8.00;92.50;;;;;;5051126;28;20477;-90
2022/03/03 11:03:59;;;;;;;27.33;20.27;;;8.00;92.40;;;;;;5052626;28;20489;-90
2022/03/03 11:06:30;;;;;;;29.00;18.55;;;8.20;91.90;;;;;;5048234;28;20476;-90
2022/03/03 11:09:00;;;;;;;24.55;17.42;;;8.30;91.80;;;;;;5045185;28;20233;-91
2022/03/03 11:11:31;;;;;;;26.53;18.63;;;8.40;91.30;;;;;;5042194;28;20667;-90
2022/03/03 11:13:59;;;;;;;24.88;19.00;;;8.50;90.80;;;;;;5043310;28;20418;-89
2022/03/03 11:16:28;;;;;;;25.87;17.67;;;8.50;90.70;;;;;;5041387;28;20276;-90
2022/03/03 11:18:57;;;;;;;25.27;19.10;;;8.40;90.60;;;;;;5039855;28;20503;-91
2022/03/03 11:21:25;;;;;;;24.63;18.60;;;8.50;90.60;;;;;;5038808;28;20508;-89
2022/03/03 11:23:56;;;;;;;26.90;19.48;;;8.60;90.60;;;;;;5040428;28;20560;-90
2022/03/03 11:26:26;;;;;;;29.70;18.00;;;8.70;90.50;;;;;;5052622;28;20206;-90
2022/03/03 11:29:08;;;;;;;27.87;20.40;;;8.80;90.40;;;;;;5049290;28;20495;-90
2022/03/03 11:31:39;;;;;;;30.53;19.90;;;9.00;90.20;;;;;;5041452;28;20452;-89
2022/03/03 11:34:22;;;;;;;27.67;19.83;;;8.90;90.10;;;;;;5039638;28;20438;-90
2022/03/03 11:36:49;;;;;;;27.10;18.90;;;9.00;89.40;;;;;;5039918;28;20835;-89
2022/03/03 11:39:39;;;;;;;29.57;18.10;;;9.10;87.90;;;;;;5042618;28;20557;-89
2022/03/03 11:42:37;;;;;;;23.93;16.10;;;9.00;87.70;;;;;;5052351;28;20451;-89
2022/03/03 11:45:31;;;;;;;27.43;18.63;;;9.20;85.90;;;;;;4957721;29;20414;-90
2022/03/03 11:48:11;;;;;;;29.50;19.20;;;9.30;85.60;;;;;;5033126;28;20447;-90
2022/03/03 11:50:38;;;;;;;33.23;18.17;;;9.30;85.10;;;;;;5038283;28;20934;-91
2022/03/03 11:53:24;;;;;;;24.80;17.83;;;9.30;84.70;;;;;;5042905;28;20452;-89
2022/03/03 11:56:04;;;;;;;24.97;17.50;;;9.50;84.20;;;;;;5038967;28;20438;-89
2022/03/03 11:58:34;;;;;;;25.93;18.00;;;9.60;83.50;;;;;;5037939;28;20568;-90
2022/03/03 12:01:17;;;;;;;28.77;18.23;;;9.70;81.10;;;;;;5041296;28;20432;-89
2022/03/03 12:04:03;;;;;;;27.83;18.17;;;9.70;80.50;;;;;;5050133;28;20483;-89
2022/03/03 12:06:38;;;;;;;25.10;16.93;;;9.80;80.30;;;;;;5044416;28;20476;-89
2022/03/03 12:09:19;;;;;;;25.37;17.47;;;9.70;79.50;;;;;;5042084;28;20445;-90
2022/03/03 12:11:45;;;;;;;24.83;17.70;;;9.70;79.70;;;;;;5037030;28;20428;-90
2022/03/03 12:14:35;;;;;;;24.67;18.23;;;9.70;80.10;;;;;;5037496;28;20496;-91
2022/03/03 12:23:30;;;;;;;26.03;18.03;;;9.80;80.50;;;;;;5042085;28;20919;-89
2022/03/03 12:26:02;;;;;;;28.83;17.80;;;9.90;80.80;;;;;;5037738;28;20519;-90
2022/03/03 12:28:37;;;;;;;25.43;17.07;;;9.90;80.60;;;;;;5045107;28;20531;-89
2022/03/03 12:31:24;;;;;;;24.47;17.03;;;10.00;78.20;;;;;;5043904;28;20475;-88
2022/03/03 12:34:05;;;;;;;27.00;18.00;;;10.10;77.60;;;;;;5044949;28;20556;-89
2022/03/03 12:36:34;;;;;;;29.20;18.60;;;10.20;78.10;;;;;;5053804;28;20436;-90
2022/03/03 12:39:01;;;;;;;26.07;19.13;;;10.20;78.70;;;;;;5037531;28;20620;-90
2022/03/03 12:41:31;;;;;;;32.30;18.50;;;10.20;78.60;;;;;;5038916;28;20493;-90
2022/03/03 12:44:17;;;;;;;26.27;14.17;;;10.20;78.80;;;;;;5041254;28;20432;-91
2022/03/03 12:46:45;;;;;;;24.53;16.70;;;10.30;77.40;;;;;;5040480;28;20422;-90
2022/03/03 12:49:15;;;;;;;23.00;15.37;;;10.30;76.00;;;;;;5044677;28;20872;-91
2022/03/03 12:51:45;;;;;;;22.20;15.50;;;10.30;75.00;;;;;;5038943;28;21057;-89
2022/03/03 12:54:12;;;;;;;23.10;16.20;;;10.20;72.50;;;;;;5036606;28;20414;-89
2022/03/03 12:56:58;;;;;;;24.80;18.13;;;10.20;73.50;;;;;;5035952;28;20954;-89
2022/03/03 12:59:26;;;;;;;28.20;19.50;;;10.30;73.20;;;;;;5041805;28;20476;-89
2022/03/03 13:01:57;;;;;;;25.03;15.73;;;10.40;75.60;;;;;;5039631;28;20460;-90
2022/03/03 13:04:27;;;;;;;27.00;18.50;;;10.60;74.10;;;;;;5044462;28;20430;-91
2022/03/03 13:07:06;;;;;;;32.17;20.17;;;10.50;75.40;;;;;;5048868;28;20404;-89
2022/03/03 13:09:33;;;;;;;31.07;20.67;;;10.40;75.80;;;;;;5045547;28;20497;-89
2022/03/03 13:12:00;;;;;;;28.70;18.40;;;10.40;76.70;;;;;;5038444;28;20627;-89